Genua — IIYU — position and weather

sailwx.info

Track history (hours):
 
Tides and Currents Weather Stations Pressure Air Temp Water Temp Dewpoint Dewpoint Depression Visibility Wind Speed Wind Dir Waves Ship Positions

Genua

Last reported at 2014-Oct-24 06:31 UTC. Time now 2014-Oct-24 07:03 UTC.
Position N 44°25' E 008°50'.

; draft 6 m.

Type: Tug. MMSI: 247204000.

Date/timePositionNaut miles runAvg speedWind from/ knotsBaromVisibWave heightAir tempDewpointWater temp
2014-Oct-24 06:31N 44°25' E 008°50'1 0.0
2014-Oct-23 12:08N 44°25' E 008°49'1 0.7
2014-Oct-23 11:13N 44°25' E 008°50'0 0.0
2014-Oct-22 17:15N 44°25' E 008°49'4 4.4
2014-Oct-22 16:17N 44°25' E 008°55'0 0.0
2014-Oct-22 15:29N 44°25' E 008°55'1 0.7
2014-Oct-22 14:33N 44°24' E 008°55'1 0.5
2014-Oct-22 13:19N 44°25' E 008°55'0 0.0
2014-Oct-22 12:22N 44°25' E 008°55'1 1.0
2014-Oct-22 11:33N 44°24' E 008°55'3 2.9
2014-Oct-22 10:33N 44°24' E 008°51'3 0.2
2014-Oct-21 19:34N 44°25' E 008°47'5 2.4
2014-Oct-21 17:32N 44°24' E 008°54'1 0.7
2014-Oct-21 16:09N 44°24' E 008°56'3 4.3
2014-Oct-21 15:31N 44°24' E 008°52'2 0.2
2014-Oct-21 07:26N 44°25' E 008°50'0 0.0
2014-Oct-20 07:09N 44°25' E 008°50'0 0.7
2014-Oct-20 06:31N 44°25' E 008°50'0 0.0
2014-Oct-19 21:33N 44°25' E 008°50'0 0.0
2014-Oct-19 12:07N 44°25' E 008°50'0 0.0
2014-Oct-19 10:28N 44°25' E 008°50'0 0.0
2014-Oct-18 20:25N 44°25' E 008°50'0 0.0
2014-Oct-18 19:04N 44°25' E 008°50'0 0.0
2014-Oct-18 18:21N 44°25' E 008°50'0 0.0
2014-Oct-18 17:06N 44°25' E 008°50'0 0.0
2014-Oct-18 16:03N 44°25' E 008°50'0 0.0
2014-Oct-18 15:24N 44°25' E 008°50'0 0.0
2014-Oct-18 13:03N 44°25' E 008°50'2 0.1
2014-Oct-17 19:33N 44°24' E 008°53'2 1.8
2014-Oct-17 18:33N 44°24' E 008°55'2 1.7
2014-Oct-17 17:17N 44°24' E 008°52'1 1.7
2014-Oct-17 16:33N 44°24' E 008°54'1 1.1
2014-Oct-17 15:29N 44°25' E 008°55'0 0.0
2014-Oct-17 14:32N 44°25' E 008°55'1 0.8
2014-Oct-17 13:32N 44°24' E 008°55'0 0.3
2014-Oct-17 12:31N 44°24' E 008°55'0 0.2
2014-Oct-17 11:33N 44°24' E 008°56'1 0.8
2014-Oct-17 10:15N 44°25' E 008°55'0 0.0
2014-Oct-17 07:33N 44°25' E 008°55'0 0.0
2014-Oct-17 06:15N 44°25' E 008°55'0 0.0
2014-Oct-17 05:27N 44°25' E 008°55'1 1.1
2014-Oct-17 04:32N 44°24' E 008°56'1 0.9
2014-Oct-17 03:26N 44°25' E 008°55'0 0.0
2014-Oct-17 02:32N 44°25' E 008°55'0 0.0
2014-Oct-17 01:32N 44°25' E 008°55'3 1.3
2014-Oct-16 23:33N 44°24' E 008°52'1 0.1
2014-Oct-16 11:06N 44°25' E 008°50'0 0.0
2014-Oct-15 20:30N 44°25' E 008°49'4 4.4
2014-Oct-15 19:32N 44°24' E 008°55'1 0.8
2014-Oct-15 18:33N 44°24' E 008°56'5 0.6
2014-Oct-15 10:10N 44°25' E 008°50'0 0.0
2014-Oct-15 01:32N 44°25' E 008°50'0 0.0
2014-Oct-15 00:32N 44°25' E 008°50'0 0.0
2014-Oct-14 16:20N 44°25' E 008°50'0 0.3
2014-Oct-14 15:28N 44°25' E 008°50'1 0.9
2014-Oct-14 14:32N 44°25' E 008°49'1 1.3
2014-Oct-14 13:33N 44°25' E 008°50'  
Track history (hours):
 
Tides and Currents Weather Stations Pressure Air Temp Water Temp Dewpoint Dewpoint Depression Visibility Wind Speed Wind Dir Waves Ship Positions

Genua

Last reported at 2014-Oct-24 06:31 UTC. Time now 2014-Oct-24 07:03 UTC.
Position N 44°25' E 008°50'.

; draft 6 m.

Type: Tug. MMSI: 247204000.

Date/timePositionNaut miles runAvg speedWind from/ knotsBaromVisibWave heightAir tempDewpointWater temp
2014-Oct-24 06:31N 44°25' E 008°50'1 0.0
2014-Oct-23 12:08N 44°25' E 008°49'1 0.7
2014-Oct-23 11:13N 44°25' E 008°50'0 0.0
2014-Oct-22 17:15N 44°25' E 008°49'4 4.4
2014-Oct-22 16:17N 44°25' E 008°55'0 0.0
2014-Oct-22 15:29N 44°25' E 008°55'1 0.7
2014-Oct-22 14:33N 44°24' E 008°55'1 0.5
2014-Oct-22 13:19N 44°25' E 008°55'0 0.0
2014-Oct-22 12:22N 44°25' E 008°55'1 1.0
2014-Oct-22 11:33N 44°24' E 008°55'3 2.9
2014-Oct-22 10:33N 44°24' E 008°51'3 0.2
2014-Oct-21 19:34N 44°25' E 008°47'5 2.4
2014-Oct-21 17:32N 44°24' E 008°54'1 0.7
2014-Oct-21 16:09N 44°24' E 008°56'3 4.3
2014-Oct-21 15:31N 44°24' E 008°52'2 0.2
2014-Oct-21 07:26N 44°25' E 008°50'0 0.0
2014-Oct-20 07:09N 44°25' E 008°50'0 0.7
2014-Oct-20 06:31N 44°25' E 008°50'0 0.0
2014-Oct-19 21:33N 44°25' E 008°50'0 0.0
2014-Oct-19 12:07N 44°25' E 008°50'0 0.0
2014-Oct-19 10:28N 44°25' E 008°50'0 0.0
2014-Oct-18 20:25N 44°25' E 008°50'0 0.0
2014-Oct-18 19:04N 44°25' E 008°50'0 0.0
2014-Oct-18 18:21N 44°25' E 008°50'0 0.0
2014-Oct-18 17:06N 44°25' E 008°50'0 0.0
2014-Oct-18 16:03N 44°25' E 008°50'0 0.0
2014-Oct-18 15:24N 44°25' E 008°50'0 0.0
2014-Oct-18 13:03N 44°25' E 008°50'2 0.1
2014-Oct-17 19:33N 44°24' E 008°53'2 1.8
2014-Oct-17 18:33N 44°24' E 008°55'2 1.7
2014-Oct-17 17:17N 44°24' E 008°52'1 1.7
2014-Oct-17 16:33N 44°24' E 008°54'1 1.1
2014-Oct-17 15:29N 44°25' E 008°55'0 0.0
2014-Oct-17 14:32N 44°25' E 008°55'1 0.8
2014-Oct-17 13:32N 44°24' E 008°55'0 0.3
2014-Oct-17 12:31N 44°24' E 008°55'0 0.2
2014-Oct-17 11:33N 44°24' E 008°56'1 0.8
2014-Oct-17 10:15N 44°25' E 008°55'0 0.0
2014-Oct-17 07:33N 44°25' E 008°55'0 0.0
2014-Oct-17 06:15N 44°25' E 008°55'0 0.0
2014-Oct-17 05:27N 44°25' E 008°55'1 1.1
2014-Oct-17 04:32N 44°24' E 008°56'1 0.9
2014-Oct-17 03:26N 44°25' E 008°55'0 0.0
2014-Oct-17 02:32N 44°25' E 008°55'0 0.0
2014-Oct-17 01:32N 44°25' E 008°55'3 1.3
2014-Oct-16 23:33N 44°24' E 008°52'1 0.1
2014-Oct-16 11:06N 44°25' E 008°50'0 0.0
2014-Oct-15 20:30N 44°25' E 008°49'4 4.4
2014-Oct-15 19:32N 44°24' E 008°55'1 0.8
2014-Oct-15 18:33N 44°24' E 008°56'5 0.6
2014-Oct-15 10:10N 44°25' E 008°50'0 0.0
2014-Oct-15 01:32N 44°25' E 008°50'0 0.0
2014-Oct-15 00:32N 44°25' E 008°50'0 0.0
2014-Oct-14 16:20N 44°25' E 008°50'0 0.3
2014-Oct-14 15:28N 44°25' E 008°50'1 0.9
2014-Oct-14 14:32N 44°25' E 008°49'1 1.3
2014-Oct-14 13:33N 44°25' E 008°50'  

Dump ship's entire track history